Meteo Giornale » Osservazioni meteo Germania » Niederrhein

ore: 20:50 - Osservazioni Meteo Niederrhein
Lat. 51° 36' N Lon. 6° 9' E Alt. 32 metri s.l.m.

sereno

15 °C

Sereno

Temp. 24 Ore

15 °C

22 °C

Nord

0 Km/h

Dew point 12 °C

Umidità 82 %

Visibilità  9 Km

Il sole sorge alle ore 06:48

Il sole tramonta alle ore 20:22

Data e Ora Cielo e Fenomeni T °C DP °C Um. % Pres. hPa Vis. km Vento km/h
Oggi h: 20:50 sereno Sereno 15 12 82 1020 9 N 0
Oggi h: 20:20 sereno Sereno 18 11 63 1020 10 N 3.7
Oggi h: 19:50 sereno Sereno 20 11 56 1020 10 O/NO 7.4
Oggi h: 19:20 sereno Sereno 20 11 56 1020 10 O 11.1
Oggi h: 18:50 poco_nuvoloso Poco Nuvoloso 21 11 52 1020 10 O/NO 9.3
Oggi h: 18:20 poco_nuvoloso Poco Nuvoloso 21 11 52 1020 10 O 14.8
Oggi h: 17:50 nuvoloso Nuvoloso 21 11 52 1020 10 O/NO 14.8
Oggi h: 17:20 sereno Sereno 21 11 52 1020 10 O 20.3
Oggi h: 16:50 poco_nuvoloso Poco Nuvoloso 21 11 52 1020 10 O/NO 20.3
Oggi h: 16:20 nuvoloso Nuvoloso 21 10 49 1020 10 O/NO 18.5
Oggi h: 15:50 nuvoloso Nuvoloso 21 11 52 1019 10 O/NO 18.5
Oggi h: 15:20 sereno Sereno 22 12 53 1020 10 O 24
Oggi h: 14:50 poco_nuvoloso Poco Nuvoloso 21 12 56 1020 10 O 25.9
Oggi h: 14:20 sereno Sereno 21 13 60 1020 10 O 22.2
Oggi h: 13:50 molto_nuvoloso Molto Nuvoloso 19 14 72 1020 10 O 20.3
Oggi h: 13:20 poco_nuvoloso Poco Nuvoloso 19 16 82 1020 10 O/SO 13
Oggi h: 12:50 poco_nuvoloso Poco Nuvoloso 19 17 88 1020 8 O/SO 11.1
Oggi h: 12:20 coperto_pioggia Pioggia 17 16 93 1020 6 O/SO 11.1
Oggi h: 11:50 coperto_pioggia Pioggia 18 16 88 1020 6 O/SO 13
Oggi h: 11:20 foschia Foschia 17 17 100 1020 5 SO 11.1
Oggi h: 10:50 foschia Foschia 17 17 100 1019 4 SO 9.3
Oggi h: 10:20 coperto_pioggia Pioggia Foschia 16 16 100 1019 4 O/SO 11.1
Oggi h: 09:50 coperto_pioggia Pioggia 16 15 93 1019 4 SO 13
Oggi h: 09:20 foschia Foschia 16 15 93 1019 5 SO 13
Oggi h: 08:50 coperto_pioggia Pioggia 16 15 93 1019 5 S/SO 13
Oggi h: 08:20 molto_nuvoloso Molto Nuvoloso 15 15 100 1018 7 S 11.1
Oggi h: 07:50 coperto Coperto 15 15 100 1018 10 S/SO 11.1
Oggi h: 07:20 molto_nuvoloso Molto Nuvoloso 15 14 93 1018 10 S/SO 11.1
Oggi h: 06:50 nuvoloso Nuvoloso 15 14 93 1018 10 S/SO 9.3
Oggi h: 06:20 sereno Sereno 15 14 93 1017 10 SO 11.1
Oggi h: 05:50 sereno Sereno 15 14 93 1017 10 SO 11.1
Oggi h: 05:20 sereno Sereno 15 14 93 1017 10 SO 7.4
Oggi h: 04:50 sereno Sereno 16 14 87 1017 10 O/SO 13
Oggi h: 04:20 coperto Coperto 16 14 87 1017 10 O/SO 13
Oggi h: 03:50 coperto Coperto 16 14 87 1017 10 O/SO 14.8
Oggi h: 03:20 molto_nuvoloso Molto Nuvoloso 16 14 87 1017 10 SO 13
Oggi h: 02:50 molto_nuvoloso Molto Nuvoloso 16 14 87 1017 10 SO 13
Oggi h: 02:20 molto_nuvoloso Molto Nuvoloso 16 13 82 1017 10 SO 13
Oggi h: 01:50 sereno Sereno 16 13 82 1017 10 SO 11.1
Oggi h: 01:20 poco_nuvoloso Poco Nuvoloso 16 13 82 1016 10 SO 13
Oggi h: 00:50 sereno Sereno 16 13 82 1016 10 SO 11.1
Oggi h: 00:20 sereno Sereno 16 12 77 1016 10 SO 13
Ieri h: 23:50 poco_nuvoloso Poco Nuvoloso 16 12 77 1016 10 S/SO 13
Ieri h: 23:20 sereno Sereno 16 12 77 1016 10 SO 11.1
Ieri h: 22:50 sereno Sereno 16 12 77 1016 10 SO 11.1
Ieri h: 22:20 sereno Sereno 17 12 72 1016 10 SO 11.1
Ieri h: 21:50 sereno Sereno 16 12 77 1015 10 SO 11.1